createdAt,value
2019-03-19T00:00:01.531Z,0
2019-03-19T00:01:01.681Z,0
2019-03-19T00:02:01.750Z,0
2019-03-19T00:03:01.855Z,0
2019-03-19T00:04:01.977Z,0
2019-03-19T00:05:02.087Z,0
2019-03-19T00:06:02.176Z,0
2019-03-19T00:07:02.277Z,0
2019-03-19T00:08:02.372Z,0
2019-03-19T00:09:02.446Z,0
2019-03-19T00:10:02.544Z,0
2019-03-19T00:11:02.645Z,0
2019-03-19T00:12:02.647Z,0
2019-03-19T00:13:02.664Z,0
2019-03-19T00:14:02.819Z,0
2019-03-19T00:15:02.795Z,0
2019-03-19T00:16:02.831Z,0
2019-03-19T00:17:02.837Z,0
2019-03-19T00:18:02.923Z,0
2019-03-19T00:19:02.998Z,0
2019-03-19T00:20:03.049Z,0
2019-03-19T00:21:03.085Z,0
2019-03-19T00:22:03.134Z,0
2019-03-19T00:23:03.244Z,0
2019-03-19T00:24:03.389Z,0
2019-03-19T00:25:03.483Z,0
2019-03-19T00:26:03.493Z,0
2019-03-19T00:27:03.615Z,0
2019-03-19T00:28:03.695Z,0
2019-03-19T00:29:03.843Z,0
2019-03-19T00:30:03.949Z,0
2019-03-19T00:31:03.998Z,0
2019-03-19T00:32:04.105Z,0
2019-03-19T00:33:04.209Z,0
2019-03-19T00:34:04.274Z,0
2019-03-19T00:35:04.321Z,0
2019-03-19T00:36:04.361Z,0
2019-03-19T00:37:04.420Z,0
2019-03-19T00:38:04.451Z,0
2019-03-19T00:39:04.573Z,0
2019-03-19T00:40:04.609Z,0
2019-03-19T00:41:04.691Z,0
2019-03-19T00:42:04.731Z,0
2019-03-19T00:43:04.767Z,0
2019-03-19T00:44:04.875Z,0
2019-03-19T00:45:04.918Z,0
2019-03-19T00:46:04.965Z,0
2019-03-19T00:47:05.004Z,0
2019-03-19T00:48:05.035Z,0
2019-03-19T00:49:06.772Z,0
2019-03-19T00:50:05.177Z,0
2019-03-19T00:51:05.223Z,0
2019-03-19T00:52:05.284Z,0
2019-03-19T00:53:05.346Z,0
2019-03-19T00:54:05.502Z,0
2019-03-19T00:55:05.469Z,0
2019-03-19T00:56:05.580Z,0
2019-03-19T00:57:05.677Z,0
2019-03-19T00:58:05.786Z,0
2019-03-19T00:59:05.850Z,0
2019-03-19T01:00:06.939Z,0
2019-03-19T01:01:06.066Z,0
2019-03-19T01:02:06.116Z,0
2019-03-19T01:03:06.150Z,0
2019-03-19T01:04:06.221Z,0
2019-03-19T01:05:06.252Z,0
2019-03-19T01:06:06.269Z,0
2019-03-19T01:07:06.320Z,0
2019-03-19T01:08:06.351Z,0
2019-03-19T01:09:06.572Z,0
2019-03-19T01:10:06.447Z,0
2019-03-19T01:11:07.465Z,0
2019-03-19T01:12:06.502Z,0
2019-03-19T01:13:06.561Z,0
2019-03-19T01:14:06.629Z,0
2019-03-19T01:15:06.702Z,0
2019-03-19T01:16:06.768Z,0
2019-03-19T01:17:06.772Z,0
2019-03-19T01:18:06.805Z,0
2019-03-19T01:19:06.863Z,0
2019-03-19T01:20:06.997Z,0
2019-03-19T01:21:07.013Z,0
2019-03-19T01:22:07.057Z,0
2019-03-19T01:23:07.089Z,0
2019-03-19T01:24:07.142Z,0
2019-03-19T01:25:07.225Z,0
2019-03-19T01:26:07.275Z,0
2019-03-19T01:27:07.313Z,0
2019-03-19T01:28:07.366Z,0
2019-03-19T01:29:07.398Z,0
2019-03-19T01:30:07.487Z,0
2019-03-19T01:31:07.528Z,0
2019-03-19T01:32:07.587Z,0
2019-03-19T01:33:07.626Z,0
2019-03-19T01:34:07.668Z,0
2019-03-19T01:35:07.735Z,0
2019-03-19T01:36:07.770Z,0
2019-03-19T01:37:07.809Z,0
2019-03-19T01:38:07.849Z,0
2019-03-19T01:39:07.901Z,0
2019-03-19T01:40:07.998Z,0
2019-03-19T01:41:08.038Z,0
2019-03-19T01:42:08.073Z,0
2019-03-19T01:43:08.103Z,0
2019-03-19T01:44:08.154Z,0
2019-03-19T01:45:08.244Z,0
2019-03-19T01:46:08.347Z,0
2019-03-19T01:47:08.380Z,0
2019-03-19T01:48:08.392Z,0
2019-03-19T01:49:08.439Z,0
2019-03-19T01:50:08.532Z,0
2019-03-19T01:51:08.552Z,0
2019-03-19T01:52:08.593Z,0
2019-03-19T01:53:08.617Z,0
2019-03-19T01:54:08.642Z,0
2019-03-19T01:55:08.692Z,0
2019-03-19T01:56:08.709Z,0
2019-03-19T01:57:08.754Z,0
2019-03-19T01:58:08.773Z,0
2019-03-19T01:59:08.808Z,0
2019-03-19T02:00:08.863Z,0
2019-03-19T02:01:08.890Z,0
2019-03-19T02:02:08.914Z,0
2019-03-19T02:03:08.939Z,0
2019-03-19T02:04:08.968Z,0
2019-03-19T02:05:09.116Z,0
2019-03-19T02:06:09.146Z,0
2019-03-19T02:07:09.195Z,0
2019-03-19T02:08:09.295Z,0
2019-03-19T02:09:09.391Z,0
2019-03-19T02:10:09.528Z,0
2019-03-19T02:11:09.626Z,0
2019-03-19T02:12:09.754Z,0
2019-03-19T02:13:09.850Z,0
2019-03-19T02:14:09.951Z,0
2019-03-19T02:15:10.108Z,0
2019-03-19T02:16:10.205Z,0
2019-03-19T02:17:12.526Z,0
2019-03-19T02:18:10.449Z,0
2019-03-19T02:19:10.539Z,0
2019-03-19T02:20:10.675Z,0
2019-03-19T02:21:10.765Z,0
2019-03-19T02:22:10.869Z,0
2019-03-19T02:23:10.968Z,0
2019-03-19T02:24:11.072Z,0
2019-03-19T02:25:11.194Z,0
2019-03-19T02:26:16.202Z,0
2019-03-19T02:27:11.350Z,0
2019-03-19T02:28:11.473Z,0
2019-03-19T02:29:11.564Z,0
2019-03-19T02:30:11.693Z,0
2019-03-19T02:31:11.795Z,0
2019-03-19T02:32:11.889Z,0
2019-03-19T02:33:12.031Z,0
2019-03-19T02:34:12.129Z,0
2019-03-19T02:35:12.267Z,0
2019-03-19T02:36:12.391Z,0
2019-03-19T02:37:12.506Z,0
2019-03-19T02:38:12.603Z,0
2019-03-19T02:39:12.725Z,0
2019-03-19T02:40:12.914Z,0
2019-03-19T02:41:12.826Z,0
2019-03-19T02:42:12.925Z,0
2019-03-19T02:43:13.047Z,0
2019-03-19T02:44:14.110Z,0
2019-03-19T02:45:13.228Z,0
2019-03-19T02:46:13.356Z,0
2019-03-19T02:47:13.458Z,0
2019-03-19T02:48:13.572Z,0
2019-03-19T02:49:13.681Z,0
2019-03-19T02:50:13.814Z,0
2019-03-19T02:51:13.936Z,0
2019-03-19T02:52:14.020Z,0
2019-03-19T02:53:14.150Z,0
2019-03-19T02:54:14.236Z,0
2019-03-19T02:55:14.378Z,0
2019-03-19T02:56:14.490Z,0
2019-03-19T02:57:15.561Z,0
2019-03-19T02:58:14.667Z,0
2019-03-19T02:59:14.764Z,0
2019-03-19T03:00:14.967Z,0
2019-03-19T03:01:15.056Z,0
2019-03-19T03:02:15.149Z,0
2019-03-19T03:03:15.277Z,0
2019-03-19T03:04:15.398Z,0
2019-03-19T03:05:15.532Z,0
2019-03-19T03:06:16.620Z,0
2019-03-19T03:07:15.728Z,0
2019-03-19T03:08:15.831Z,0
2019-03-19T03:09:15.934Z,0
2019-03-19T03:10:16.091Z,0
2019-03-19T03:11:16.035Z,0
2019-03-19T03:12:16.139Z,0
2019-03-19T03:13:16.251Z,0
2019-03-19T03:14:16.364Z,0
2019-03-19T03:15:16.596Z,0
2019-03-19T03:16:16.521Z,0
2019-03-19T03:17:16.632Z,0
2019-03-19T03:18:16.742Z,0
2019-03-19T03:19:17.853Z,0
2019-03-19T03:20:17.009Z,0
2019-03-19T03:21:16.939Z,0
2019-03-19T03:22:17.041Z,0
2019-03-19T03:23:17.133Z,0
2019-03-19T03:24:17.239Z,0
2019-03-19T03:25:17.410Z,0
2019-03-19T03:26:17.464Z,0
2019-03-19T03:27:17.567Z,0
2019-03-19T03:28:17.670Z,0
2019-03-19T03:29:17.843Z,0
2019-03-19T03:30:17.913Z,0
2019-03-19T03:31:17.882Z,0
2019-03-19T03:32:17.987Z,0
2019-03-19T03:33:18.091Z,0
2019-03-19T03:34:18.187Z,0
2019-03-19T03:35:18.298Z,0
2019-03-19T03:36:18.429Z,0
2019-03-19T03:37:18.526Z,0
2019-03-19T03:38:18.635Z,0
2019-03-19T03:39:18.725Z,0
2019-03-19T03:40:18.813Z,0
2019-03-19T03:41:18.967Z,0
2019-03-19T03:42:19.064Z,0
2019-03-19T03:43:20.157Z,0
2019-03-19T03:44:19.252Z,0
2019-03-19T03:45:19.352Z,0
2019-03-19T03:46:19.495Z,0
2019-03-19T03:47:19.598Z,0
2019-03-19T03:48:19.698Z,0
2019-03-19T03:49:19.796Z,0
2019-03-19T03:50:19.895Z,0
2019-03-19T03:51:19.917Z,0
2019-03-19T03:52:20.029Z,0
2019-03-19T03:53:20.136Z,0
2019-03-19T03:54:20.244Z,0
2019-03-19T03:55:20.350Z,0
2019-03-19T03:56:21.477Z,0
2019-03-19T03:57:20.582Z,0
2019-03-19T03:58:20.679Z,0
2019-03-19T03:59:20.784Z,0
2019-03-19T04:00:20.947Z,0
2019-03-19T04:01:21.015Z,0
2019-03-19T04:02:21.194Z,0
2019-03-19T04:03:21.211Z,0
2019-03-19T04:04:21.339Z,0
2019-03-19T04:05:21.444Z,0
2019-03-19T04:06:21.602Z,0
2019-03-19T04:07:21.727Z,0
2019-03-19T04:08:21.829Z,0
2019-03-19T04:09:21.940Z,0
2019-03-19T04:10:22.039Z,0
2019-03-19T04:11:22.176Z,0
2019-03-19T04:12:22.279Z,0
2019-03-19T04:13:22.408Z,0
2019-03-19T04:14:22.547Z,0
2019-03-19T04:15:22.657Z,0
2019-03-19T04:16:22.815Z,0
2019-03-19T04:17:22.916Z,0
2019-03-19T04:18:23.010Z,0
2019-03-19T04:19:23.108Z,0
2019-03-19T04:20:23.207Z,0
2019-03-19T04:21:23.348Z,0
2019-03-19T04:22:23.469Z,0
2019-03-19T04:23:23.568Z,0
2019-03-19T04:24:23.701Z,0
2019-03-19T04:25:23.796Z,0
2019-03-19T04:26:23.965Z,0
2019-03-19T04:27:23.898Z,0
2019-03-19T04:28:23.996Z,0
2019-03-19T04:29:24.091Z,0
2019-03-19T04:30:24.188Z,0
2019-03-19T04:31:24.374Z,0
2019-03-19T04:32:24.316Z,0
2019-03-19T04:33:24.431Z,0
2019-03-19T04:34:25.524Z,0
2019-03-19T04:35:24.675Z,0
2019-03-19T04:36:24.853Z,0
2019-03-19T04:37:24.772Z,0
2019-03-19T04:38:24.875Z,0
2019-03-19T04:39:25.028Z,0
2019-03-19T04:40:25.128Z,0
2019-03-19T04:41:25.883Z,0
2019-03-19T04:42:25.336Z,0
2019-03-19T04:43:25.456Z,0
2019-03-19T04:44:25.549Z,0
2019-03-19T04:45:25.676Z,0
2019-03-19T04:46:25.792Z,0
2019-03-19T04:47:25.908Z,0
2019-03-19T04:48:26.004Z,0
2019-03-19T04:49:26.096Z,0
2019-03-19T04:50:26.195Z,0
2019-03-19T04:51:26.324Z,0
2019-03-19T04:52:26.419Z,0
2019-03-19T04:53:26.516Z,0
2019-03-19T04:54:26.623Z,0
2019-03-19T04:55:26.706Z,0
2019-03-19T04:56:26.827Z,0
2019-03-19T04:57:27.303Z,0
2019-03-19T04:58:27.024Z,0
2019-03-19T04:59:27.128Z,1
2019-03-19T05:00:27.233Z,1
2019-03-19T05:01:27.356Z,0
2019-03-19T05:02:27.497Z,1
2019-03-19T05:03:27.598Z,1
2019-03-19T05:04:27.690Z,1
2019-03-19T05:05:27.810Z,2
2019-03-19T05:06:27.936Z,2
2019-03-19T05:07:28.056Z,2
2019-03-19T05:08:28.177Z,2
2019-03-19T05:09:28.284Z,2
2019-03-19T05:10:28.437Z,3
2019-03-19T05:11:28.590Z,4
2019-03-19T05:12:28.717Z,4
2019-03-19T05:13:28.817Z,5
2019-03-19T05:14:28.922Z,6
2019-03-19T05:15:29.039Z,8
2019-03-19T05:16:29.191Z,9
2019-03-19T05:17:29.291Z,11
2019-03-19T05:18:31.235Z,13
2019-03-19T05:19:29.485Z,16
2019-03-19T05:20:29.590Z,20
2019-03-19T05:21:29.712Z,24
2019-03-19T05:22:29.825Z,28
2019-03-19T05:23:29.927Z,32
2019-03-19T05:24:30.065Z,38
2019-03-19T05:25:30.150Z,45
2019-03-19T05:26:30.316Z,52
2019-03-19T05:27:37.224Z,60
2019-03-19T05:28:30.311Z,70
2019-03-19T05:29:30.428Z,81
2019-03-19T05:30:30.521Z,91
2019-03-19T05:31:30.585Z,102
2019-03-19T05:32:30.623Z,117
2019-03-19T05:33:30.681Z,131
2019-03-19T05:34:30.757Z,145
2019-03-19T05:35:30.813Z,161
2019-03-19T05:36:31.008Z,179
2019-03-19T05:37:31.035Z,197
2019-03-19T05:38:32.059Z,217
2019-03-19T05:39:31.086Z,237
2019-03-19T05:40:31.125Z,259
2019-03-19T05:41:31.222Z,280
2019-03-19T05:42:31.259Z,300
2019-03-19T05:43:31.297Z,327
2019-03-19T05:44:31.335Z,353
2019-03-19T05:45:31.380Z,376
2019-03-19T05:46:31.486Z,403
2019-03-19T05:47:36.946Z,427
2019-03-19T05:48:32.680Z,462
2019-03-19T05:49:31.748Z,492
2019-03-19T05:50:31.794Z,516
2019-03-19T05:51:31.869Z,533
2019-03-19T05:52:31.957Z,576
2019-03-19T05:53:32.030Z,597
2019-03-19T05:54:32.094Z,629
2019-03-19T05:55:32.131Z,654
2019-03-19T05:56:32.179Z,696
2019-03-19T05:57:32.250Z,692
2019-03-19T05:58:33.278Z,758
2019-03-19T05:59:32.311Z,758
2019-03-19T06:00:32.348Z,793
2019-03-19T06:01:32.393Z,827
2019-03-19T06:02:32.491Z,862
2019-03-19T06:03:32.621Z,853
2019-03-19T06:04:32.650Z,903
2019-03-19T06:05:33.032Z,958
2019-03-19T06:06:32.736Z,972
2019-03-19T06:07:32.835Z,974
2019-03-19T06:08:32.900Z,1026
2019-03-19T06:09:32.930Z,1045
2019-03-19T06:10:32.975Z,1056
2019-03-19T06:11:33.031Z,1100
2019-03-19T06:12:33.068Z,1137
2019-03-19T06:13:33.151Z,1124
2019-03-19T06:14:33.204Z,1165
2019-03-19T06:15:33.310Z,1173
2019-03-19T06:16:33.355Z,1212
2019-03-19T06:17:33.441Z,1258
2019-03-19T06:18:35.238Z,1285
2019-03-19T06:19:33.500Z,1296
2019-03-19T06:20:33.545Z,1307
2019-03-19T06:21:33.588Z,1320
2019-03-19T06:22:33.723Z,1328
2019-03-19T06:23:33.754Z,1381
2019-03-19T06:24:33.800Z,1412
2019-03-19T06:25:33.862Z,1417
2019-03-19T06:26:33.905Z,1435
2019-03-19T06:27:34.014Z,1458
2019-03-19T06:28:35.619Z,1462
2019-03-19T06:29:34.136Z,1511
2019-03-19T06:30:34.176Z,1556
2019-03-19T06:31:34.246Z,1576
2019-03-19T06:32:34.324Z,1609
2019-03-19T06:33:34.360Z,1603
2019-03-19T06:34:34.449Z,1580
2019-03-19T06:35:34.504Z,1595
2019-03-19T06:36:34.567Z,1640
2019-03-19T06:37:34.636Z,1667
2019-03-19T06:38:34.702Z,1737
2019-03-19T06:39:34.754Z,1774
2019-03-19T06:40:34.788Z,1783
2019-03-19T06:41:34.872Z,1785
2019-03-19T06:42:34.917Z,1782
2019-03-19T06:43:34.964Z,1776
2019-03-19T06:44:34.989Z,1824
2019-03-19T06:45:35.027Z,1833
2019-03-19T06:46:35.093Z,1845
2019-03-19T06:47:35.160Z,1864
2019-03-19T06:48:35.198Z,1882
2019-03-19T06:49:35.268Z,1885
2019-03-19T06:50:44.595Z,1929
2019-03-19T06:51:36.314Z,1986
2019-03-19T06:52:35.385Z,2022
2019-03-19T06:53:35.424Z,2005
2019-03-19T06:54:35.474Z,1996
2019-03-19T06:55:35.519Z,1997
2019-03-19T06:56:35.638Z,2052
2019-03-19T06:57:39.254Z,2062
2019-03-19T06:58:35.718Z,2078
2019-03-19T06:59:35.767Z,2087
2019-03-19T07:00:35.806Z,2099
2019-03-19T07:01:35.850Z,2127
2019-03-19T07:02:35.915Z,2136
2019-03-19T07:03:36.004Z,2151
2019-03-19T07:04:36.065Z,2183
2019-03-19T07:05:36.118Z,2185
2019-03-19T07:06:37.172Z,2180
2019-03-19T07:07:36.243Z,2197
2019-03-19T07:08:36.293Z,2209
2019-03-19T07:09:36.349Z,2250
2019-03-19T07:10:36.378Z,2274
2019-03-19T07:11:36.425Z,2292
2019-03-19T07:12:36.533Z,2280
2019-03-19T07:13:36.585Z,2326
2019-03-19T07:14:36.641Z,2325
2019-03-19T07:15:36.683Z,2340
2019-03-19T07:16:36.736Z,2354
2019-03-19T07:17:36.853Z,2380
2019-03-19T07:18:36.887Z,2402
2019-03-19T07:19:36.930Z,2421
2019-03-19T07:20:37.011Z,2424
2019-03-19T07:21:37.058Z,2455
2019-03-19T07:22:37.177Z,2474
2019-03-19T07:23:37.257Z,2463
2019-03-19T07:24:37.299Z,2490
2019-03-19T07:25:38.340Z,2531
2019-03-19T07:26:37.374Z,2568
2019-03-19T07:27:37.491Z,2569
2019-03-19T07:28:37.532Z,2568
2019-03-19T07:29:37.581Z,2596
2019-03-19T07:30:37.633Z,2602
2019-03-19T07:31:37.664Z,2578
2019-03-19T07:32:37.731Z,2646
2019-03-19T07:33:37.815Z,2672
2019-03-19T07:34:37.859Z,2688
2019-03-19T07:35:38.899Z,2682
2019-03-19T07:36:37.935Z,2689
2019-03-19T07:37:37.976Z,2693
2019-03-19T07:38:38.073Z,2691
2019-03-19T07:39:38.118Z,2710
2019-03-19T07:40:38.160Z,2819
2019-03-19T07:41:38.202Z,2807
2019-03-19T07:42:38.240Z,2859
2019-03-19T07:43:38.336Z,2870
2019-03-19T07:44:38.393Z,2897
2019-03-19T07:45:38.454Z,2922
2019-03-19T07:46:38.525Z,2962
2019-03-19T07:47:38.562Z,2981
2019-03-19T07:48:38.653Z,2991
2019-03-19T07:49:38.703Z,2970
2019-03-19T07:50:38.754Z,2992
2019-03-19T07:51:38.801Z,3061
2019-03-19T07:52:38.838Z,3119
2019-03-19T07:53:38.921Z,3169
2019-03-19T07:54:38.979Z,3165
2019-03-19T07:55:39.086Z,3173
2019-03-19T07:56:39.054Z,3147
2019-03-19T07:57:39.124Z,3130
2019-03-19T07:58:44.978Z,3113
2019-03-19T07:59:39.240Z,3130
2019-03-19T08:00:39.317Z,3203
2019-03-19T08:01:39.373Z,3241
2019-03-19T08:02:39.408Z,3292
2019-03-19T08:03:39.471Z,3432
2019-03-19T08:04:39.524Z,3515
2019-03-19T08:05:39.576Z,3634
2019-03-19T08:06:39.625Z,3575
2019-03-19T08:07:39.693Z,3700
2019-03-19T08:08:39.759Z,3818
2019-03-19T08:09:39.882Z,3950
2019-03-19T08:10:39.888Z,3929
2019-03-19T08:11:39.938Z,4035
2019-03-19T08:12:40.518Z,4142
2019-03-19T08:13:40.121Z,4207
2019-03-19T08:14:40.176Z,4234
2019-03-19T08:15:40.215Z,4334
2019-03-19T08:16:40.270Z,4402
2019-03-19T08:17:42.761Z,4449
2019-03-19T08:18:40.407Z,4650
2019-03-19T08:19:40.471Z,9855
2019-03-19T08:20:40.533Z,16752
2019-03-19T08:21:40.576Z,17264
2019-03-19T08:22:40.643Z,20800
2019-03-19T08:23:40.730Z,23392
2019-03-19T08:24:40.799Z,25144
2019-03-19T08:25:40.872Z,23656
2019-03-19T08:26:40.923Z,21248
2019-03-19T08:27:40.960Z,23240
2019-03-19T08:28:41.051Z,25208
2019-03-19T08:29:42.077Z,19928
2019-03-19T08:30:41.109Z,19760
2019-03-19T08:31:41.164Z,22208
2019-03-19T08:32:41.249Z,26224
2019-03-19T08:33:41.348Z,22392
2019-03-19T08:34:42.382Z,18968
2019-03-19T08:35:41.422Z,18984
2019-03-19T08:36:41.504Z,21056
2019-03-19T08:37:41.593Z,23368
2019-03-19T08:38:41.673Z,19000
2019-03-19T08:39:41.755Z,15304
2019-03-19T08:40:41.834Z,13536
2019-03-19T08:41:41.890Z,16040
2019-03-19T08:42:41.927Z,17536
2019-03-19T08:43:41.992Z,19104
2019-03-19T08:44:43.027Z,19216
2019-03-19T08:45:42.057Z,20568
2019-03-19T08:46:42.133Z,20672
2019-03-19T08:47:42.181Z,25440
2019-03-19T08:48:42.255Z,22184
2019-03-19T08:49:42.294Z,21288
2019-03-19T08:50:42.335Z,21016
2019-03-19T08:51:42.405Z,17784
2019-03-19T08:52:42.506Z,18608
2019-03-19T08:53:42.585Z,18568
2019-03-19T08:54:42.698Z,17928
2019-03-19T08:55:42.770Z,22640
2019-03-19T08:56:42.828Z,26864
2019-03-19T08:57:42.875Z,20760
2019-03-19T08:58:43.004Z,16288
2019-03-19T08:59:43.040Z,23520
2019-03-19T09:00:43.126Z,19216
2019-03-19T09:01:43.179Z,11002
2019-03-19T09:02:43.220Z,11303
2019-03-19T09:03:43.325Z,20440
2019-03-19T09:04:43.373Z,27568
2019-03-19T09:05:43.414Z,18320
2019-03-19T09:06:43.449Z,13767
2019-03-19T09:07:43.501Z,17480
2019-03-19T09:08:43.640Z,9187
2019-03-19T09:09:43.678Z,7543
2019-03-19T09:10:43.770Z,14027
2019-03-19T09:11:43.829Z,23192
2019-03-19T09:12:44.481Z,18744
2019-03-19T09:13:44.076Z,13657
2019-03-19T09:14:45.108Z,9212
2019-03-19T09:15:44.133Z,11904
2019-03-19T09:16:44.214Z,19824
2019-03-19T09:17:44.257Z,17896
2019-03-19T09:18:44.335Z,16880
2019-03-19T09:19:44.379Z,11071
2019-03-19T09:20:44.416Z,5205
2019-03-19T09:21:45.455Z,9957
2019-03-19T09:22:44.522Z,33184
2019-03-19T09:23:44.574Z,28888
2019-03-19T09:24:44.665Z,22192
2019-03-19T09:25:44.705Z,18496
2019-03-19T09:26:44.752Z,13225
2019-03-19T09:27:44.787Z,9292
2019-03-19T09:28:44.858Z,10400
2019-03-19T09:29:44.947Z,9896
2019-03-19T09:30:45.047Z,9582
2019-03-19T09:31:45.081Z,8961
2019-03-19T09:32:45.138Z,7905
2019-03-19T09:33:45.189Z,7428
2019-03-19T09:34:45.296Z,7772
2019-03-19T09:35:45.348Z,14594
2019-03-19T09:36:45.382Z,18840
2019-03-19T09:37:57.161Z,6972
2019-03-19T09:38:46.554Z,16776
2019-03-19T09:39:45.624Z,11039
2019-03-19T09:40:47.901Z,6271
2019-03-19T09:41:45.714Z,6664
2019-03-19T09:42:45.756Z,4392
2019-03-19T09:43:45.797Z,4735
2019-03-19T09:44:45.866Z,33104
2019-03-19T09:45:46.878Z,38648
2019-03-19T09:46:45.920Z,22712
2019-03-19T09:47:45.960Z,12952
2019-03-19T09:48:47.726Z,7030
2019-03-19T09:49:46.112Z,10385
2019-03-19T09:50:46.158Z,25664
2019-03-19T09:51:46.202Z,42688
2019-03-19T09:52:46.244Z,38760
2019-03-19T09:53:46.282Z,37296
2019-03-19T09:54:46.375Z,31320
2019-03-19T09:55:46.460Z,27448
2019-03-19T09:56:46.503Z,13531
2019-03-19T09:57:46.537Z,16066
2019-03-19T09:58:46.586Z,39896
2019-03-19T09:59:46.665Z,41808
2019-03-19T10:00:46.728Z,26616
2019-03-19T10:01:46.790Z,13102
2019-03-19T10:02:46.844Z,9389
2019-03-19T10:03:46.887Z,20784
2019-03-19T10:04:46.976Z,29160
2019-03-19T10:05:47.016Z,30880
2019-03-19T10:06:47.305Z,25104
2019-03-19T10:07:48.103Z,16088
2019-03-19T10:08:47.140Z,23520
2019-03-19T10:09:47.215Z,25136
2019-03-19T10:10:47.261Z,26672
2019-03-19T10:11:47.299Z,14656
2019-03-19T10:12:48.351Z,9828
2019-03-19T10:13:47.388Z,8266
2019-03-19T10:14:47.456Z,17768
2019-03-19T10:15:47.498Z,7797
2019-03-19T10:16:47.571Z,23960
2019-03-19T10:17:47.628Z,24656
2019-03-19T10:18:47.672Z,6855
2019-03-19T10:19:47.749Z,6917
2019-03-19T10:20:47.788Z,7742
2019-03-19T10:21:47.830Z,19784
2019-03-19T10:22:47.882Z,18696
2019-03-19T10:23:47.931Z,14145
2019-03-19T10:24:48.004Z,11640
2019-03-19T10:25:48.048Z,28016
2019-03-19T10:26:48.126Z,11057
2019-03-19T10:27:48.170Z,14363
2019-03-19T10:28:48.234Z,14618
2019-03-19T10:29:48.317Z,16448
2019-03-19T10:30:48.362Z,13912
2019-03-19T10:31:48.401Z,10730
2019-03-19T10:32:48.455Z,8513
2019-03-19T10:33:48.516Z,7402
2019-03-19T10:34:48.624Z,7676
2019-03-19T10:35:48.697Z,7190
2019-03-19T10:36:48.815Z,7238
2019-03-19T10:37:49.891Z,7256
2019-03-19T10:38:48.967Z,7012
2019-03-19T10:39:49.033Z,7439
2019-03-19T10:40:49.094Z,18800
2019-03-19T10:41:49.138Z,35992
2019-03-19T10:42:49.206Z,34296
2019-03-19T10:43:49.287Z,38640
2019-03-19T10:44:49.383Z,43808
2019-03-19T10:45:49.435Z,42112
2019-03-19T10:46:49.546Z,46264
2019-03-19T10:47:49.658Z,50384
2019-03-19T10:48:49.672Z,47232
2019-03-19T10:49:49.793Z,35368
2019-03-19T10:50:49.845Z,26680
2019-03-19T10:51:49.888Z,39336
2019-03-19T10:52:49.999Z,45032
2019-03-19T10:53:50.055Z,38608
2019-03-19T10:54:50.165Z,37496
2019-03-19T10:55:50.230Z,34352
2019-03-19T10:56:50.292Z,41000
2019-03-19T10:57:50.339Z,50320
2019-03-19T10:58:50.427Z,55568
2019-03-19T10:59:50.509Z,50584
2019-03-19T11:00:50.659Z,57424
2019-03-19T11:01:51.576Z,63472
2019-03-19T11:02:50.791Z,62776
2019-03-19T11:03:50.867Z,56784
2019-03-19T11:04:50.906Z,48768
2019-03-19T11:05:50.903Z,48832
2019-03-19T11:06:50.966Z,56392
2019-03-19T11:07:51.034Z,65535
2019-03-19T11:08:51.155Z,65535
2019-03-19T11:09:51.185Z,10951
2019-03-19T11:10:51.295Z,12336
2019-03-19T11:11:51.347Z,55840
2019-03-19T11:12:51.433Z,43024
2019-03-19T11:13:51.490Z,46928
2019-03-19T11:14:51.576Z,60888
2019-03-19T11:15:51.675Z,34576
2019-03-19T11:16:51.739Z,50336
2019-03-19T11:17:51.820Z,52584
2019-03-19T11:18:51.870Z,11109
2019-03-19T11:19:51.931Z,18000
2019-03-19T11:20:52.050Z,43304
2019-03-19T11:21:52.117Z,38216
2019-03-19T11:22:52.162Z,22640
2019-03-19T11:23:52.228Z,29224
2019-03-19T11:24:52.297Z,22032
2019-03-19T11:25:54.592Z,28296
2019-03-19T11:26:52.453Z,65535
2019-03-19T11:27:52.605Z,65535
2019-03-19T11:28:52.519Z,58208
2019-03-19T11:29:59.633Z,26368
2019-03-19T11:30:52.641Z,18944
2019-03-19T11:31:52.681Z,15181
2019-03-19T11:32:52.712Z,43352
2019-03-19T11:33:52.815Z,33728
2019-03-19T11:34:52.887Z,65535
2019-03-19T11:35:52.964Z,65535
2019-03-19T11:36:57.631Z,23432
2019-03-19T11:37:53.055Z,53192
2019-03-19T11:38:53.129Z,17728
2019-03-19T11:39:53.201Z,64592
2019-03-19T11:40:53.303Z,65535
2019-03-19T11:41:53.355Z,57160
2019-03-19T11:42:53.446Z,61400
2019-03-19T11:43:53.497Z,54488
2019-03-19T11:44:53.617Z,55192
2019-03-19T11:45:53.685Z,62880
2019-03-19T11:46:53.760Z,65535
2019-03-19T11:47:53.791Z,65535
2019-03-19T11:48:53.830Z,65535
2019-03-19T11:49:53.896Z,62664
2019-03-19T11:50:53.965Z,50600
2019-03-19T11:51:54.019Z,65535
2019-03-19T11:52:54.109Z,65535
2019-03-19T11:53:54.231Z,65535
2019-03-19T11:54:54.275Z,52480
2019-03-19T11:55:54.401Z,50168
2019-03-19T11:56:54.376Z,49792
2019-03-19T11:57:54.449Z,65535
2019-03-19T11:58:54.499Z,65535
2019-03-19T11:59:54.574Z,65535
2019-03-19T12:00:55.627Z,65535
2019-03-19T12:01:54.676Z,65535
2019-03-19T12:02:54.742Z,65535
2019-03-19T12:03:55.805Z,65535
2019-03-19T12:04:54.869Z,65535
2019-03-19T12:05:54.927Z,65535
2019-03-19T12:06:55.038Z,57040
2019-03-19T12:07:55.086Z,49232
2019-03-19T12:08:55.174Z,55928
2019-03-19T12:09:55.200Z,65535
2019-03-19T12:10:55.321Z,65535
2019-03-19T12:11:55.413Z,65535
2019-03-19T12:12:55.498Z,65535
2019-03-19T12:13:55.611Z,65535
2019-03-19T12:14:55.693Z,65535
2019-03-19T12:15:55.826Z,65535
2019-03-19T12:16:55.877Z,65535
2019-03-19T12:17:55.930Z,65535
2019-03-19T12:18:56.008Z,65535
2019-03-19T12:19:56.121Z,65535
2019-03-19T12:20:56.434Z,65535
2019-03-19T12:21:56.257Z,52816
2019-03-19T12:22:56.314Z,53384
2019-03-19T12:23:56.435Z,65535
2019-03-19T12:24:56.532Z,65535
2019-03-19T12:25:56.626Z,65535
2019-03-19T12:26:56.713Z,65535
2019-03-19T12:27:56.782Z,62824
2019-03-19T12:28:56.843Z,44768
2019-03-19T12:29:56.925Z,56616
2019-03-19T12:30:57.078Z,65535
2019-03-19T12:31:57.016Z,65535
2019-03-19T12:32:57.057Z,65535
2019-03-19T12:33:57.157Z,60288
2019-03-19T12:34:57.232Z,55864
2019-03-19T12:35:57.912Z,65535
2019-03-19T12:36:57.270Z,65535
2019-03-19T12:37:57.409Z,65535
2019-03-19T12:38:57.465Z,58248
2019-03-19T12:39:57.579Z,57736
2019-03-19T12:40:57.726Z,65535
2019-03-19T12:41:57.656Z,65535
2019-03-19T12:42:57.714Z,65535
2019-03-19T12:43:57.758Z,65535
2019-03-19T12:44:57.873Z,60248
2019-03-19T12:45:58.015Z,44984
2019-03-19T12:46:58.144Z,65535
2019-03-19T12:47:58.215Z,65535
2019-03-19T12:48:58.280Z,65535
2019-03-19T12:49:58.347Z,65535
2019-03-19T12:50:58.441Z,65064
2019-03-19T12:51:58.506Z,65535
2019-03-19T12:52:58.581Z,61416
2019-03-19T12:53:58.644Z,65535
2019-03-19T12:54:58.688Z,65535
2019-03-19T12:55:58.824Z,61000
2019-03-19T12:56:58.869Z,63344
2019-03-19T12:58:01.153Z,65535
2019-03-19T12:58:58.989Z,65535
2019-03-19T12:59:59.149Z,65535
2019-03-19T13:00:59.297Z,64944
2019-03-19T13:01:59.391Z,55304
2019-03-19T13:02:59.854Z,56496
2019-03-19T13:03:59.599Z,65535
2019-03-19T13:04:59.649Z,65535
2019-03-19T13:05:59.824Z,54688
2019-03-19T13:06:59.731Z,52688
2019-03-19T13:07:59.935Z,61760
2019-03-19T13:08:59.926Z,65535
2019-03-19T13:10:00.012Z,65535
2019-03-19T13:11:00.117Z,30456
2019-03-19T13:12:00.173Z,54816
2019-03-19T13:13:00.255Z,19896
2019-03-19T13:14:00.392Z,20016
2019-03-19T13:15:00.477Z,26248
2019-03-19T13:16:00.562Z,34704
2019-03-19T13:17:00.539Z,31504
2019-03-19T13:18:00.590Z,29816
2019-03-19T13:19:00.645Z,14605
2019-03-19T13:20:00.690Z,17576
2019-03-19T13:21:00.822Z,58936
2019-03-19T13:22:00.777Z,48664
2019-03-19T13:23:00.870Z,38776
2019-03-19T13:24:00.971Z,57000
2019-03-19T13:25:01.044Z,26824
2019-03-19T13:26:02.108Z,24792
2019-03-19T13:27:01.184Z,25776
2019-03-19T13:28:01.311Z,33784
2019-03-19T13:29:01.354Z,26768
2019-03-19T13:30:01.438Z,14723
2019-03-19T13:31:01.499Z,53360
2019-03-19T13:32:01.619Z,57040
2019-03-19T13:33:01.695Z,53424
2019-03-19T13:34:01.778Z,54168
2019-03-19T13:35:01.848Z,49544
2019-03-19T13:36:01.915Z,45168
2019-03-19T13:37:02.011Z,44296
2019-03-19T13:38:02.079Z,55016
2019-03-19T13:39:03.149Z,65535
2019-03-19T13:40:02.221Z,65535
2019-03-19T13:41:02.284Z,65535
2019-03-19T13:42:02.423Z,54040
2019-03-19T13:43:02.532Z,43728